In Rescue
 
Open Full Screen Window  High Contrast Mode
Wind Gusting 00 knots
07
June 22, 2024 10:58 PM EDT
Present Weather: Rain
Weather Information
Wind Direction
  200 °
Wind Speed
  07 kt (8 mph)
Wind Gust
  00 kt (0 mph)
Altimeter
29.67 in
Visibility
7 SM
Temperature
22° C
72° F
Dewpoint
21° C
70° F
Humidity
94%
1hr Rain Fall
00.03 in.
24hr Rain Fall
01.13 in.
Sky Condition
Overcast @ 9,500 ft
Scattered @ 7,000 ft
VFR

METAR KOSC 230258Z AUTO 20007KT 7SM RA SCT070 OVC095 22/21 A2967 RMK AO2 P0003 60003 T02170205

FAA Disclaimer: The data displayed is for advisory purposes only and is not to be used for flight planning or operations.